RAG weather

Raglan Airfield
Waikato Region, New Zealand

Public forecast

Using degrees Celsius for public forecast. Weather courtesy of forecast.io.

Closest aviation weather report (METAR) to Raglan Airfield

Closest report is Auckland International Airport, 47.9 nm (88.8 km) N. Retrieved 2020/04/03 00:00 UTC (17 minutes ago):

NZAA 030000Z AUTO 21005KT 170V240 9999 NCD 21/14 Q1019 NOSIG

Closest aviation forecast (TAF) to Raglan Airfield

Closest forecast is Auckland International Airport, 47.9 nm (88.8 km) N. Retrieved 2020-04-03 00:04 UTC (13 minutes ago):

TAF NZAA 022302Z 0300/0400 14005KT 9999 FEW025 BECMG 0300/0302 22010KT BECMG 0309/0311 11005KT PROB30 TEMPO 0315/0319 2000 BR